Time;durP1;ratioP1;P1;durP2;ratioP2;P2;SDS_P1;SDS_P2;PMS_P1;PMS_P2;Temp;Humidity;BMP_temperature;BMP_pressure;BME280_temperature;BME280_humidity;BME280_pressure;Samples;Min_cycle;Max_cycle;Signal;HPM_P1;HPM_P2
2021/04/06 00:01:31;;;;;;;2.43;2.17;;;1.60;99.90;;;;;;5063902;28;20429;-59
2021/04/06 00:03:57;;;;;;;2.40;2.17;;;1.60;99.90;;;;;;5073299;28;20433;-52
2021/04/06 00:06:24;;;;;;;3.00;2.00;;;1.50;99.90;;;;;;5073161;28;20441;-49
2021/04/06 00:08:50;;;;;;;2.63;2.43;;;1.40;99.90;;;;;;5072783;28;20900;-48
2021/04/06 00:11:17;;;;;;;2.30;2.10;;;1.20;99.90;;;;;;5073509;28;20420;-47
2021/04/06 00:13:43;;;;;;;4.27;2.40;;;1.20;99.90;;;;;;5072328;28;20463;-47
2021/04/06 00:16:11;;;;;;;2.50;2.30;;;1.20;99.90;;;;;;5072865;28;20424;-54
2021/04/06 00:18:37;;;;;;;2.40;2.20;;;1.10;99.90;;;;;;5073244;28;20492;-50
2021/04/06 00:21:06;;;;;;;3.67;2.33;;;1.10;99.90;;;;;;5073279;28;20413;-52
2021/04/06 00:23:33;;;;;;;2.53;2.23;;;1.00;99.90;;;;;;5073516;28;20417;-53
2021/04/06 00:25:59;;;;;;;2.50;2.30;;;1.00;99.90;;;;;;5073325;28;20447;-54
2021/04/06 00:28:34;;;;;;;4.73;2.50;;;1.00;99.90;;;;;;5073490;28;20420;-49
2021/04/06 00:31:01;;;;;;;4.63;2.67;;;0.90;99.90;;;;;;5073319;28;20467;-50
2021/04/06 00:33:28;;;;;;;3.53;2.43;;;0.80;99.90;;;;;;5073363;28;20846;-58
2021/04/06 00:35:56;;;;;;;3.60;2.37;;;0.80;99.90;;;;;;5076796;28;20443;-52
2021/04/06 00:38:26;;;;;;;3.87;2.10;;;0.70;99.90;;;;;;5077173;28;20401;-51
2021/04/06 00:40:56;;;;;;;3.23;2.30;;;0.60;99.90;;;;;;5076896;28;20405;-52
2021/04/06 00:43:34;;;;;;;5.07;2.60;;;0.70;99.90;;;;;;5077006;28;20419;-54
2021/04/06 00:46:01;;;;;;;3.33;2.50;;;0.80;99.90;;;;;;5076942;28;20468;-55
2021/04/06 00:48:27;;;;;;;2.43;2.23;;;0.90;99.90;;;;;;5076973;28;20427;-57
2021/04/06 00:51:12;;;;;;;4.07;2.53;;;0.90;99.90;;;;;;5076357;28;20503;-59
2021/04/06 00:53:59;;;;;;;3.03;2.40;;;0.90;99.90;;;;;;5076606;28;20819;-54
2021/04/06 00:56:26;;;;;;;3.77;2.50;;;0.90;99.90;;;;;;5076665;28;20427;-48
2021/04/06 00:58:53;;;;;;;2.23;1.80;;;0.90;99.90;;;;;;5075476;28;20791;-53
2021/04/06 01:01:37;;;;;;;3.20;2.10;;;0.80;99.90;;;;;;5076059;28;20401;-46
2021/04/06 01:04:25;;;;;;;3.07;1.80;;;0.60;99.90;;;;;;5076285;28;20916;-57
2021/04/06 01:07:14;;;;;;;4.13;1.93;;;0.50;99.90;;;;;;5075978;28;20773;-55
2021/04/06 01:09:43;;;;;;;1.53;1.40;;;0.60;99.90;;;;;;5076465;28;20892;-49
2021/04/06 01:12:12;;;;;;;2.10;1.60;;;0.60;99.90;;;;;;5076167;28;20471;-57
2021/04/06 01:14:40;;;;;;;1.90;1.43;;;0.50;99.90;;;;;;5076521;28;20433;-47
2021/04/06 01:17:08;;;;;;;1.13;0.90;;;0.50;99.90;;;;;;5076343;28;20884;-47
2021/04/06 01:19:35;;;;;;;1.47;1.00;;;0.40;99.90;;;;;;5076141;28;20397;-58
2021/04/06 01:22:05;;;;;;;2.27;1.03;;;0.30;99.90;;;;;;5076163;28;20409;-52
2021/04/06 01:24:31;;;;;;;1.50;1.07;;;0.40;99.90;;;;;;5076318;28;20409;-48
2021/04/06 01:26:58;;;;;;;2.00;1.13;;;0.40;99.90;;;;;;5075949;28;20439;-58
2021/04/06 01:29:25;;;;;;;3.47;1.50;;;0.30;99.90;;;;;;5075962;28;20487;-54
2021/04/06 01:31:52;;;;;;;1.00;1.00;;;0.10;99.90;;;;;;5074810;28;20409;-52
2021/04/06 01:34:18;;;;;;;2.97;1.23;;;-0.10;99.90;;;;;;5075770;28;20517;-49
2021/04/06 01:36:47;;;;;;;1.40;1.30;;;-0.10;99.90;;;;;;5075731;28;20550;-47
2021/04/06 01:39:15;;;;;;;5.07;1.77;;;-0.10;99.90;;;;;;5075974;28;20416;-50
2021/04/06 01:41:45;;;;;;;1.67;1.57;;;-0.10;99.90;;;;;;5075574;28;20417;-58
2021/04/06 01:44:12;;;;;;;2.33;1.80;;;-0.10;99.90;;;;;;5075681;28;20408;-52
2021/04/06 01:46:41;;;;;;;2.07;1.87;;;0.00;99.90;;;;;;5075825;28;20420;-54
2021/04/06 01:49:08;;;;;;;1.77;1.63;;;0.20;99.90;;;;;;5075603;28;20416;-47
2021/04/06 01:51:34;;;;;;;2.30;1.97;;;0.20;99.90;;;;;;5075581;28;20519;-47
2021/04/06 01:54:04;;;;;;;2.80;1.57;;;0.20;99.90;;;;;;5075514;28;20437;-53
2021/04/06 01:56:32;;;;;;;2.43;1.87;;;0.20;99.90;;;;;;5073895;28;20608;-54
2021/04/06 01:59:02;;;;;;;2.20;2.00;;;0.10;99.90;;;;;;5075644;28;20400;-48
2021/04/06 02:01:28;;;;;;;2.57;2.10;;;0.10;99.90;;;;;;5073782;28;20443;-52
2021/04/06 02:04:06;;;;;;;2.87;2.10;;;0.10;99.90;;;;;;5075057;28;20492;-55
2021/04/06 02:06:38;;;;;;;2.83;2.47;;;0.00;99.90;;;;;;5075411;28;20186;-53
2021/04/06 02:09:08;;;;;;;3.00;2.30;;;0.00;99.90;;;;;;5074035;28;20451;-57
2021/04/06 02:11:37;;;;;;;2.37;2.17;;;0.00;99.90;;;;;;5074305;28;20754;-59
2021/04/06 02:14:08;;;;;;;3.10;2.60;;;0.00;99.90;;;;;;5074492;28;20488;-50
2021/04/06 02:16:56;;;;;;;4.60;2.43;;;0.00;99.90;;;;;;5075273;28;20436;-49
2021/04/06 02:19:23;;;;;;;3.53;2.70;;;0.00;99.90;;;;;;5075232;28;20935;-50
2021/04/06 02:21:50;;;;;;;3.00;2.70;;;0.10;99.90;;;;;;5074856;28;20439;-47
2021/04/06 02:24:36;;;;;;;4.00;3.17;;;0.10;99.90;;;;;;5075066;28;20519;-48
2021/04/06 02:27:24;;;;;;;3.20;2.43;;;0.10;99.90;;;;;;5075009;28;20444;-53
2021/04/06 02:29:50;;;;;;;2.90;2.70;;;0.10;99.90;;;;;;5074876;28;20428;-53
2021/04/06 02:32:21;;;;;;;5.43;2.70;;;0.10;99.90;;;;;;5074671;28;20400;-56
2021/04/06 02:34:49;;;;;;;3.73;3.10;;;0.10;99.90;;;;;;5074655;28;20413;-51
2021/04/06 02:37:16;;;;;;;3.83;2.60;;;0.10;99.90;;;;;;5074686;28;20448;-47
2021/04/06 02:39:42;;;;;;;4.97;2.73;;;0.10;99.90;;;;;;5074823;28;20412;-47
2021/04/06 02:42:22;;;;;;;3.47;3.07;;;0.10;99.90;;;;;;5074426;28;20463;-58
2021/04/06 02:44:48;;;;;;;5.03;3.23;;;0.10;99.90;;;;;;5074597;28;20779;-46
2021/04/06 02:47:14;;;;;;;3.37;3.07;;;0.20;99.90;;;;;;5074652;28;20968;-48
2021/04/06 02:49:41;;;;;;;5.43;3.47;;;0.20;99.90;;;;;;5074539;28;20233;-50
2021/04/06 02:52:07;;;;;;;3.53;2.90;;;0.10;99.90;;;;;;5074423;28;20405;-55
2021/04/06 02:54:33;;;;;;;5.60;3.43;;;0.00;99.90;;;;;;5073394;28;20412;-49
2021/04/06 02:56:58;;;;;;;5.03;3.13;;;-0.20;99.90;;;;;;5073189;28;20226;-47
2021/04/06 02:59:24;;;;;;;5.00;3.10;;;-0.20;99.90;;;;;;5074306;28;20180;-56
2021/04/06 03:01:56;;;;;;;3.60;3.10;;;-0.20;99.90;;;;;;5074003;28;20177;-56
2021/04/06 03:04:27;;;;;;;4.77;3.50;;;-0.10;99.90;;;;;;5074467;28;20220;-56
2021/04/06 03:06:57;;;;;;;5.47;3.63;;;-0.10;99.90;;;;;;5074141;28;20439;-59
2021/04/06 03:09:25;;;;;;;4.73;3.43;;;0.00;99.90;;;;;;5074201;28;20396;-47
2021/04/06 03:11:53;;;;;;;4.83;4.00;;;-0.10;99.90;;;;;;5074015;28;20497;-47
2021/04/06 03:14:21;;;;;;;5.30;3.93;;;-0.10;99.90;;;;;;5074203;28;20405;-47
2021/04/06 03:16:52;;;;;;;5.63;4.47;;;-0.10;99.90;;;;;;5073869;28;20429;-52
2021/04/06 03:19:18;;;;;;;5.67;3.73;;;-0.10;99.90;;;;;;5073878;28;20413;-47
2021/04/06 03:21:43;;;;;;;6.77;4.40;;;-0.10;99.90;;;;;;5073881;28;20481;-56
2021/04/06 03:24:10;;;;;;;4.77;3.90;;;-0.10;99.90;;;;;;5074157;28;20210;-51
2021/04/06 03:26:36;;;;;;;5.03;4.00;;;-0.10;99.90;;;;;;5073758;28;20590;-47
2021/04/06 03:29:03;;;;;;;5.50;4.07;;;-0.20;99.90;;;;;;5072687;28;20888;-53
2021/04/06 03:31:31;;;;;;;4.90;4.07;;;-0.20;99.90;;;;;;5073505;28;20516;-48
2021/04/06 03:33:59;;;;;;;4.90;3.90;;;-0.20;99.90;;;;;;5073821;28;20409;-50
2021/04/06 03:36:30;;;;;;;6.23;3.70;;;-0.20;99.90;;;;;;5073434;28;20456;-48
2021/04/06 03:38:58;;;;;;;4.87;3.50;;;-0.20;99.90;;;;;;5073961;28;20415;-51
2021/04/06 03:41:26;;;;;;;6.30;3.83;;;-0.10;99.90;;;;;;5073648;28;20433;-53
2021/04/06 03:43:53;;;;;;;4.53;3.80;;;-0.10;99.90;;;;;;5073774;28;20459;-48
2021/04/06 03:46:25;;;;;;;4.60;3.40;;;-0.10;99.90;;;;;;5073775;28;20436;-47
2021/04/06 03:48:52;;;;;;;5.50;3.77;;;0.00;99.90;;;;;;5073619;28;20436;-47
2021/04/06 03:51:29;;;;;;;4.63;3.30;;;0.10;99.90;;;;;;5073614;28;20416;-55
2021/04/06 03:53:56;;;;;;;4.57;3.70;;;0.10;99.90;;;;;;5073835;28;20495;-49
2021/04/06 03:56:31;;;;;;;7.23;3.70;;;0.10;99.90;;;;;;5073597;28;20855;-47
2021/04/06 03:58:58;;;;;;;5.47;3.80;;;0.00;99.90;;;;;;5073617;28;20419;-50
2021/04/06 04:01:26;;;;;;;4.03;3.33;;;0.00;99.90;;;;;;5073669;28;20509;-47
2021/04/06 04:03:56;;;;;;;7.73;3.63;;;-0.10;99.90;;;;;;5073329;28;20968;-55
2021/04/06 04:06:23;;;;;;;5.33;3.57;;;0.00;99.90;;;;;;5073529;28;20460;-47
2021/04/06 04:08:49;;;;;;;5.23;3.67;;;-0.10;99.90;;;;;;5076080;28;20903;-55
2021/04/06 04:11:14;;;;;;;5.63;3.60;;;-0.10;99.90;;;;;;5077515;28;20504;-48
2021/04/06 04:13:40;;;;;;;6.67;4.03;;;-0.20;99.90;;;;;;5076193;28;20181;-59
2021/04/06 04:16:05;;;;;;;6.93;3.87;;;-0.30;99.90;;;;;;5068677;28;20277;-57
2021/04/06 04:18:31;;;;;;;4.97;3.73;;;-0.40;99.90;;;;;;5057252;28;20183;-54
2021/04/06 04:20:57;;;;;;;4.93;3.60;;;-0.50;99.90;;;;;;5077368;28;20179;-58
2021/04/06 04:23:22;;;;;;;5.50;3.67;;;-0.60;99.90;;;;;;5077347;28;20245;-47
2021/04/06 04:25:48;;;;;;;6.57;4.10;;;-0.60;99.90;;;;;;5077041;28;20199;-47
2021/04/06 04:28:13;;;;;;;8.67;4.17;;;-0.70;99.90;;;;;;5077093;28;20171;-46
2021/04/06 04:30:41;;;;;;;4.63;3.90;;;-0.80;99.90;;;;;;5077098;28;20174;-59
2021/04/06 04:33:09;;;;;;;5.30;3.70;;;-0.80;99.90;;;;;;5076660;28;20271;-51
2021/04/06 04:35:36;;;;;;;5.03;3.80;;;-0.90;99.90;;;;;;5067673;28;20948;-55
2021/04/06 04:38:02;;;;;;;8.40;4.13;;;-0.90;99.90;;;;;;5065230;28;20432;-53
2021/04/06 04:40:28;;;;;;;4.80;3.97;;;-0.80;99.90;;;;;;5062799;28;20907;-50
2021/04/06 04:42:54;;;;;;;5.87;3.90;;;-0.90;99.90;;;;;;5067188;28;20195;-54
2021/04/06 04:45:21;;;;;;;6.13;3.90;;;-1.00;99.90;;;;;;5064465;28;20540;-47
2021/04/06 04:47:47;;;;;;;5.20;3.80;;;-1.00;99.90;;;;;;5066476;28;20408;-54
2021/04/06 04:50:13;;;;;;;5.57;3.80;;;-1.10;99.90;;;;;;5062475;28;20443;-58
2021/04/06 04:52:46;;;;;;;4.83;3.90;;;-1.00;99.90;;;;;;5060892;28;20528;-56
2021/04/06 04:55:19;;;;;;;5.40;3.77;;;-1.10;99.90;;;;;;5057667;28;20433;-55
2021/04/06 04:57:45;;;;;;;7.27;4.07;;;-1.10;99.90;;;;;;5059168;28;20464;-47
2021/04/06 05:00:12;;;;;;;5.33;3.97;;;-1.10;99.90;;;;;;5061401;28;20834;-54
2021/04/06 05:02:38;;;;;;;6.73;4.20;;;-1.10;99.90;;;;;;5060260;28;20702;-49
2021/04/06 05:05:06;;;;;;;9.00;4.07;;;-1.10;99.90;;;;;;5067949;28;20455;-55
2021/04/06 05:07:31;;;;;;;7.33;4.13;;;-1.10;99.90;;;;;;5062062;28;21108;-52
2021/04/06 05:09:57;;;;;;;5.80;4.10;;;-1.10;99.90;;;;;;5068204;28;20464;-52
2021/04/06 05:12:23;;;;;;;5.57;4.00;;;-1.10;99.90;;;;;;5063457;28;20182;-55
2021/04/06 05:14:49;;;;;;;7.07;3.97;;;-1.20;99.90;;;;;;5066383;28;20201;-47
2021/04/06 05:17:15;;;;;;;5.70;3.90;;;-1.20;99.90;;;;;;5067877;28;20206;-57
2021/04/06 05:19:41;;;;;;;7.37;4.43;;;-1.20;99.90;;;;;;5071312;28;20436;-53
2021/04/06 05:22:07;;;;;;;7.53;4.10;;;-1.20;99.90;;;;;;5067306;28;20465;-47
2021/04/06 05:24:33;;;;;;;6.10;3.73;;;-1.20;99.90;;;;;;5065159;28;20527;-53
2021/04/06 05:26:58;;;;;;;4.90;3.80;;;-1.30;99.90;;;;;;5071734;28;20299;-57
2021/04/06 05:29:24;;;;;;;8.47;4.50;;;-1.20;99.90;;;;;;5072726;28;20186;-59
2021/04/06 05:31:50;;;;;;;5.87;4.17;;;-1.20;99.90;;;;;;5065143;28;20186;-47
2021/04/06 05:34:15;;;;;;;7.40;4.43;;;-1.20;99.90;;;;;;5060221;28;20278;-53
2021/04/06 05:36:41;;;;;;;4.00;3.60;;;-1.10;99.90;;;;;;5056970;28;20207;-54
2021/04/06 05:39:06;;;;;;;8.23;4.20;;;-1.10;99.90;;;;;;5056453;28;20687;-58
2021/04/06 05:41:34;;;;;;;5.57;4.17;;;-1.00;99.90;;;;;;5058207;28;20261;-46
2021/04/06 05:44:03;;;;;;;6.17;3.87;;;-1.00;99.90;;;;;;5057458;28;20217;-55
2021/04/06 05:46:34;;;;;;;5.13;4.17;;;-1.00;99.90;;;;;;5055882;28;20440;-55
2021/04/06 05:49:03;;;;;;;4.53;3.80;;;-0.90;99.90;;;;;;5057733;28;20450;-52
2021/04/06 05:51:29;;;;;;;7.10;4.40;;;-0.80;99.90;;;;;;5061776;28;20480;-48
2021/04/06 05:53:55;;;;;;;6.53;4.37;;;-0.80;99.90;;;;;;5057158;28;20434;-52
2021/04/06 05:56:21;;;;;;;7.00;4.33;;;-0.80;99.90;;;;;;5053301;28;20195;-54
2021/04/06 05:58:47;;;;;;;5.03;4.17;;;-0.80;99.90;;;;;;5066912;28;20507;-52
2021/04/06 06:01:12;;;;;;;5.63;4.00;;;-0.80;99.90;;;;;;5072609;28;20187;-49
2021/04/06 06:03:38;;;;;;;7.87;4.23;;;-0.90;99.90;;;;;;5061028;28;20233;-57
2021/04/06 06:06:04;;;;;;;5.77;4.13;;;-0.90;99.90;;;;;;5058442;28;20289;-48
2021/04/06 06:08:30;;;;;;;7.47;4.00;;;-0.90;99.90;;;;;;5073964;28;20843;-48
2021/04/06 06:11:04;;;;;;;9.23;4.07;;;-0.90;99.90;;;;;;5064510;28;20244;-50
2021/04/06 06:13:30;;;;;;;5.53;4.30;;;-0.80;99.90;;;;;;5063210;28;20928;-48
2021/04/06 06:16:15;;;;;;;4.63;4.00;;;-0.70;99.90;;;;;;5064431;28;20433;-59
2021/04/06 06:18:57;;;;;;;6.60;4.53;;;-0.60;99.90;;;;;;5073972;28;20446;-58
2021/04/06 06:21:48;;;;;;;6.87;4.57;;;-0.60;99.90;;;;;;5068295;28;20901;-58
2021/04/06 06:24:31;;;;;;;8.07;4.43;;;-0.60;99.90;;;;;;5069368;28;20814;-47
2021/04/06 06:26:58;;;;;;;4.83;4.10;;;-0.50;99.90;;;;;;5074701;28;20456;-48
2021/04/06 06:29:28;;;;;;;7.00;4.27;;;-0.40;99.90;;;;;;5074292;28;20436;-48
2021/04/06 06:31:57;;;;;;;6.53;4.13;;;-0.30;99.90;;;;;;5073454;28;20385;-47
2021/04/06 06:34:26;;;;;;;5.77;4.33;;;-0.20;99.90;;;;;;5074675;28;20404;-51
2021/04/06 06:37:16;;;;;;;5.20;4.10;;;-0.10;99.90;;;;;;5073202;28;20463;-46
2021/04/06 06:39:54;;;;;;;6.30;4.43;;;-0.10;99.90;;;;;;5074762;28;20397;-47
2021/04/06 06:42:22;;;;;;;5.67;4.33;;;-0.20;99.90;;;;;;5071969;28;20452;-60
2021/04/06 06:44:48;;;;;;;5.50;3.97;;;0.00;99.90;;;;;;5074155;28;20908;-59
2021/04/06 06:47:18;;;;;;;7.20;4.10;;;-0.10;99.90;;;;;;5074296;28;20519;-60
2021/04/06 06:49:44;;;;;;;6.37;3.90;;;-0.10;99.90;;;;;;5074184;28;20175;-53
2021/04/06 06:52:22;;;;;;;6.83;4.17;;;0.00;99.90;;;;;;5064830;28;20432;-48
2021/04/06 06:54:51;;;;;;;7.03;4.07;;;0.00;99.90;;;;;;5058837;28;20455;-60
2021/04/06 06:57:17;;;;;;;5.17;3.80;;;0.10;99.90;;;;;;5074760;28;20443;-58
2021/04/06 06:59:46;;;;;;;5.87;3.63;;;0.30;99.90;;;;;;5074146;28;20503;-50
2021/04/06 07:02:28;;;;;;;6.43;3.90;;;0.50;99.90;;;;;;5073914;28;20190;-48
2021/04/06 07:05:10;;;;;;;4.10;3.50;;;0.60;99.90;;;;;;5061039;28;20420;-49
2021/04/06 07:08:03;;;;;;;6.33;4.23;;;0.60;99.90;;;;;;5054263;28;20394;-59
2021/04/06 07:10:34;;;;;;;6.43;4.00;;;0.60;99.90;;;;;;5054028;28;20437;-59
2021/04/06 07:13:09;;;;;;;8.10;3.93;;;0.50;99.90;;;;;;5053867;28;20506;-49
2021/04/06 07:15:36;;;;;;;5.63;3.97;;;0.60;99.90;;;;;;5053909;28;20932;-56
2021/04/06 07:18:22;;;;;;;7.87;3.83;;;0.70;99.90;;;;;;5053854;28;20410;-57
2021/04/06 07:20:59;;;;;;;5.03;3.10;;;0.90;99.90;;;;;;5057058;28;20417;-57
2021/04/06 07:23:49;;;;;;;4.27;2.90;;;1.20;99.90;;;;;;5061595;28;20547;-47
2021/04/06 07:26:17;;;;;;;6.43;3.67;;;1.10;99.90;;;;;;5074394;28;20420;-60
2021/04/06 07:28:44;;;;;;;5.30;3.47;;;0.80;99.90;;;;;;5070760;28;20406;-59
2021/04/06 07:31:11;;;;;;;5.33;3.40;;;0.80;99.90;;;;;;5053825;28;20402;-59
2021/04/06 07:33:39;;;;;;;4.47;3.20;;;0.80;99.90;;;;;;5053862;28;20484;-56
2021/04/06 07:36:14;;;;;;;5.03;3.17;;;0.80;99.90;;;;;;5053753;28;20449;-48
2021/04/06 07:38:47;;;;;;;5.77;4.03;;;1.00;99.90;;;;;;5053772;28;20413;-48
2021/04/06 07:41:15;;;;;;;5.67;3.23;;;1.20;99.90;;;;;;5053666;28;20409;-47
2021/04/06 07:43:42;;;;;;;4.37;3.00;;;1.00;99.90;;;;;;5053370;28;20956;-58
2021/04/06 07:46:07;;;;;;;10.07;7.67;;;0.80;99.90;;;;;;5057082;28;20527;-47
2021/04/06 07:48:48;;;;;;;5.30;4.00;;;0.80;99.90;;;;;;5052696;28;20868;-56
2021/04/06 07:51:21;;;;;;;7.60;3.47;;;0.80;99.90;;;;;;5072258;28;20178;-47
2021/04/06 07:54:05;;;;;;;6.17;3.67;;;0.80;99.90;;;;;;5072559;28;20400;-59
2021/04/06 07:56:43;;;;;;;5.17;3.33;;;0.80;99.90;;;;;;5073628;28;20458;-47
2021/04/06 07:59:09;;;;;;;5.13;3.27;;;0.80;99.90;;;;;;5073475;28;20761;-58
2021/04/06 08:01:35;;;;;;;5.67;3.30;;;0.90;99.90;;;;;;5073367;28;20442;-57
2021/04/06 08:04:05;;;;;;;4.17;3.33;;;0.80;99.90;;;;;;5073393;28;20456;-57
2021/04/06 08:06:57;;;;;;;6.03;3.33;;;0.60;99.90;;;;;;5065996;28;20195;-54
2021/04/06 08:09:32;;;;;;;4.13;3.20;;;0.50;99.90;;;;;;5050819;28;20452;-56
2021/04/06 08:12:20;;;;;;;5.10;3.13;;;0.50;99.90;;;;;;5053429;28;20432;-47
2021/04/06 08:14:49;;;;;;;6.37;3.27;;;0.60;99.90;;;;;;5053998;28;20398;-49
2021/04/06 08:17:26;;;;;;;5.23;3.30;;;0.60;99.90;;;;;;5053151;28;20434;-48
2021/04/06 08:20:03;;;;;;;6.53;3.60;;;0.70;99.90;;;;;;5054148;28;20435;-58
2021/04/06 08:22:32;;;;;;;7.10;3.90;;;0.70;99.90;;;;;;5055341;28;20492;-53
2021/04/06 08:25:15;;;;;;;7.20;3.97;;;0.70;99.90;;;;;;5067619;28;20958;-59
2021/04/06 08:27:43;;;;;;;5.90;3.60;;;0.80;99.90;;;;;;5058766;28;20483;-48
2021/04/06 08:30:32;;;;;;;5.53;3.57;;;0.80;99.90;;;;;;5064554;28;20443;-58
2021/04/06 08:32:57;;;;;;;5.33;3.47;;;0.80;99.90;;;;;;5072958;28;20397;-50
2021/04/06 08:35:49;;;;;;;17.53;9.17;;;0.80;99.90;;;;;;5071803;28;21026;-49
2021/04/06 08:38:28;;;;;;;23.07;11.63;;;0.80;99.90;;;;;;5045904;28;20198;-48
2021/04/06 08:41:01;;;;;;;35.30;18.63;;;0.90;99.90;;;;;;5052491;28;20405;-54
2021/04/06 08:43:29;;;;;;;5.90;3.33;;;1.00;99.90;;;;;;5053018;28;20485;-48
2021/04/06 08:46:11;;;;;;;5.30;3.07;;;1.00;99.90;;;;;;5053283;28;20832;-53
2021/04/06 08:48:52;;;;;;;6.77;3.50;;;0.90;99.90;;;;;;5053559;28;20386;-54
2021/04/06 08:51:25;;;;;;;5.13;3.13;;;0.80;99.90;;;;;;5053139;28;20488;-52
2021/04/06 08:53:55;;;;;;;4.73;3.43;;;0.70;99.90;;;;;;5053222;28;20440;-55
2021/04/06 08:56:29;;;;;;;4.80;3.70;;;0.70;99.90;;;;;;5067150;28;20444;-48
2021/04/06 08:59:37;;;;;;;5.07;3.00;;;0.80;99.90;;;;;;5066154;28;20421;-55
2021/04/06 09:02:09;;;;;;;5.50;3.20;;;1.00;99.90;;;;;;5006480;28;20463;-50
2021/04/06 09:04:40;;;;;;;5.77;3.07;;;1.00;99.90;;;;;;4994778;28;20840;-56
2021/04/06 09:07:25;;;;;;;5.33;3.10;;;1.00;99.90;;;;;;5014174;28;20436;-48
2021/04/06 09:10:06;;;;;;;5.03;3.20;;;1.00;99.90;;;;;;5015240;28;20407;-52
2021/04/06 09:12:37;;;;;;;4.63;2.90;;;1.00;99.90;;;;;;5014637;28;20950;-49
2021/04/06 09:15:05;;;;;;;3.77;2.40;;;0.90;99.90;;;;;;5014721;28;20422;-58
2021/04/06 09:17:32;;;;;;;6.03;2.90;;;0.90;99.90;;;;;;5014805;28;20416;-50
2021/04/06 09:19:59;;;;;;;4.07;2.30;;;0.90;99.90;;;;;;5014236;28;20416;-58
2021/04/06 09:22:25;;;;;;;5.87;2.83;;;0.90;99.90;;;;;;5014154;28;20545;-48
2021/04/06 09:24:51;;;;;;;7.60;2.70;;;1.00;99.90;;;;;;5014538;28;20450;-49
2021/04/06 09:27:17;;;;;;;3.50;2.30;;;1.10;99.90;;;;;;5014340;28;20999;-48
2021/04/06 09:29:49;;;;;;;4.13;2.60;;;1.10;99.90;;;;;;5014364;28;20411;-48
2021/04/06 09:32:21;;;;;;;6.00;2.70;;;1.10;99.90;;;;;;5014124;28;20180;-60
2021/04/06 09:34:50;;;;;;;4.60;2.63;;;1.00;99.90;;;;;;5015737;28;20416;-52
2021/04/06 09:37:17;;;;;;;4.17;2.87;;;1.00;99.90;;;;;;5062347;28;20472;-49
2021/04/06 09:39:51;;;;;;;2.90;2.30;;;1.00;99.90;;;;;;5060905;28;20500;-54
2021/04/06 09:42:17;;;;;;;3.13;2.40;;;1.10;99.90;;;;;;5063423;28;20543;-50
2021/04/06 09:44:45;;;;;;;5.30;2.60;;;1.10;99.90;;;;;;5076047;28;20475;-55
2021/04/06 09:47:16;;;;;;;6.70;2.73;;;1.20;99.90;;;;;;5061044;28;20441;-60
2021/04/06 09:49:45;;;;;;;5.40;2.67;;;1.30;99.90;;;;;;5055877;28;20410;-54
2021/04/06 09:52:17;;;;;;;4.53;2.80;;;1.40;99.90;;;;;;5055517;28;20484;-59
2021/04/06 09:54:50;;;;;;;13.10;2.73;;;1.50;99.90;;;;;;5055649;28;20412;-55
2021/04/06 09:57:16;;;;;;;3.53;2.67;;;1.50;99.90;;;;;;5056130;28;20905;-48
2021/04/06 09:59:51;;;;;;;4.20;2.80;;;1.50;99.90;;;;;;5055516;28;20970;-58
2021/04/06 10:02:20;;;;;;;6.50;3.00;;;1.60;99.90;;;;;;5055464;28;20445;-48
2021/04/06 10:04:48;;;;;;;3.93;2.90;;;1.60;99.90;;;;;;5055094;28;20410;-49
2021/04/06 10:07:16;;;;;;;3.87;2.70;;;1.70;99.90;;;;;;5070476;28;20472;-48
2021/04/06 10:09:47;;;;;;;3.43;2.83;;;1.70;99.90;;;;;;5075340;28;20969;-57
2021/04/06 10:12:14;;;;;;;4.90;3.30;;;1.70;99.90;;;;;;5075265;28;20397;-58
2021/04/06 10:14:41;;;;;;;2.97;2.67;;;1.80;99.90;;;;;;5075478;28;20881;-48
2021/04/06 10:17:10;;;;;;;5.27;3.17;;;1.90;99.90;;;;;;5075377;28;20436;-54
2021/04/06 10:19:39;;;;;;;3.90;2.70;;;1.90;99.90;;;;;;5074826;28;20499;-59
2021/04/06 10:22:05;;;;;;;5.20;3.30;;;1.70;99.90;;;;;;5075068;28;20892;-59
2021/04/06 10:24:32;;;;;;;5.27;3.40;;;1.40;99.90;;;;;;5075274;28;20401;-58
2021/04/06 10:27:18;;;;;;;6.83;3.87;;;1.20;99.90;;;;;;5075060;28;20186;-53
2021/04/06 10:29:45;;;;;;;4.67;3.30;;;1.10;99.90;;;;;;5075594;28;20404;-55
2021/04/06 10:32:23;;;;;;;5.37;3.30;;;1.00;99.90;;;;;;5074692;28;20503;-54
2021/04/06 10:34:59;;;;;;;5.93;3.33;;;1.20;99.90;;;;;;5074550;28;20404;-57
2021/04/06 10:37:25;;;;;;;5.93;3.60;;;1.60;99.90;;;;;;5073485;28;20444;-48
2021/04/06 10:39:51;;;;;;;4.30;3.00;;;2.30;99.90;;;;;;5074902;28;20995;-60
2021/04/06 10:42:17;;;;;;;4.97;2.60;;;3.00;99.90;;;;;;5074893;28;20512;-56
2021/04/06 10:44:45;;;;;;;3.30;2.70;;;3.50;99.90;;;;;;5074899;28;20650;-50
2021/04/06 10:47:30;;;;;;;3.97;2.60;;;3.80;99.90;;;;;;5075289;28;20205;-48
2021/04/06 10:49:59;;;;;;;6.00;2.37;;;3.40;99.90;;;;;;5074441;28;20255;-59
2021/04/06 10:52:30;;;;;;;4.43;2.90;;;3.10;99.90;;;;;;5074791;28;20265;-48
2021/04/06 10:54:56;;;;;;;3.40;2.57;;;3.10;99.90;;;;;;5074673;28;20171;-59
2021/04/06 10:57:31;;;;;;;4.50;2.33;;;3.20;99.90;;;;;;5073811;28;20271;-51
2021/04/06 10:59:56;;;;;;;4.70;2.60;;;3.30;99.90;;;;;;5060169;28;20626;-57
2021/04/06 11:02:24;;;;;;;4.00;2.73;;;3.30;99.90;;;;;;5066224;28;20217;-60
2021/04/06 11:04:50;;;;;;;4.57;2.67;;;3.20;99.90;;;;;;5061783;28;20194;-56
2021/04/06 11:07:27;;;;;;;5.17;2.90;;;3.00;99.90;;;;;;5066998;28;20210;-60
2021/04/06 11:09:53;;;;;;;6.87;3.93;;;2.90;99.90;;;;;;5055875;28;20187;-57
2021/04/06 11:12:19;;;;;;;5.77;3.97;;;2.50;99.90;;;;;;5053579;28;20808;-60
2021/04/06 11:14:45;;;;;;;3.83;3.03;;;2.10;99.90;;;;;;5054146;28;20262;-49
2021/04/06 11:17:12;;;;;;;6.37;3.70;;;2.00;99.90;;;;;;5053648;28;20635;-55
2021/04/06 11:19:43;;;;;;;5.30;3.17;;;2.70;99.90;;;;;;5054288;28;20410;-57
2021/04/06 11:22:15;;;;;;;3.80;2.60;;;3.90;99.90;;;;;;5053774;28;20179;-48
2021/04/06 11:24:43;;;;;;;3.27;2.20;;;5.10;99.90;;;;;;5054073;28;20171;-58
2021/04/06 11:27:10;;;;;;;3.10;2.43;;;7.90;99.90;;;;;;5054686;28;20202;-49
2021/04/06 11:29:37;;;;;;;3.67;2.43;;;6.20;99.90;;;;;;5064371;28;20186;-58
2021/04/06 11:32:06;;;;;;;4.53;2.53;;;5.50;99.90;;;;;;5074342;28;20170;-57
2021/04/06 11:34:33;;;;;;;5.00;2.30;;;4.80;99.90;;;;;;5074152;28;20178;-58
2021/04/06 11:36:59;;;;;;;4.40;2.63;;;4.10;99.90;;;;;;5074018;28;20202;-47
2021/04/06 11:39:31;;;;;;;4.03;3.00;;;3.70;99.90;;;;;;5074973;28;20515;-48
2021/04/06 11:41:58;;;;;;;4.80;2.57;;;3.30;99.90;;;;;;5073257;28;20193;-49
2021/04/06 11:44:24;;;;;;;2.67;2.43;;;3.20;99.90;;;;;;5073087;28;20206;-49
2021/04/06 11:46:52;;;;;;;3.40;2.00;;;3.50;99.90;;;;;;5076062;28;20193;-52
2021/04/06 11:49:19;;;;;;;3.03;2.20;;;4.80;99.90;;;;;;5072987;28;20181;-58
2021/04/06 11:51:45;;;;;;;3.00;1.77;;;6.50;99.90;;;;;;5072973;28;20206;-48
2021/04/06 11:54:13;;;;;;;2.90;1.60;;;8.10;99.90;;;;;;5074408;28;20166;-47
2021/04/06 11:56:38;;;;;;;2.47;1.77;;;8.50;99.90;;;;;;5074376;28;20218;-59
2021/04/06 11:59:04;;;;;;;3.27;1.90;;;8.50;99.90;;;;;;5073276;28;20194;-60
2021/04/06 12:01:30;;;;;;;2.47;1.80;;;8.90;99.90;;;;;;5074702;28;20166;-48
2021/04/06 12:03:56;;;;;;;2.93;1.77;;;9.70;99.90;;;;;;5075021;28;20281;-56
2021/04/06 12:06:23;;;;;;;3.37;2.03;;;9.60;99.90;;;;;;5059060;28;20195;-58
2021/04/06 12:08:49;;;;;;;2.77;2.10;;;9.50;99.90;;;;;;5054164;28;20194;-59
2021/04/06 12:11:15;;;;;;;4.63;2.70;;;8.50;99.90;;;;;;5054136;28;20531;-49
2021/04/06 12:13:41;;;;;;;3.43;2.23;;;7.60;99.90;;;;;;5051519;28;20183;-59
2021/04/06 12:16:07;;;;;;;3.73;2.50;;;6.30;99.90;;;;;;5054032;28;20190;-56
2021/04/06 12:18:32;;;;;;;2.03;1.83;;;5.10;99.90;;;;;;5053982;28;20179;-47
2021/04/06 12:20:58;;;;;;;2.43;1.80;;;3.90;99.90;;;;;;5052413;28;20175;-60
2021/04/06 12:23:24;;;;;;;3.10;2.53;;;3.50;99.90;;;;;;5053035;28;20740;-49
2021/04/06 12:25:49;;;;;;;1.77;1.63;;;4.00;99.90;;;;;;5053643;28;20199;-58
2021/04/06 12:28:15;;;;;;;5.23;2.47;;;4.70;99.90;;;;;;5062133;28;20861;-59
2021/04/06 12:30:41;;;;;;;3.97;2.07;;;5.00;99.90;;;;;;5076787;28;20166;-57
2021/04/06 12:33:06;;;;;;;3.03;1.93;;;5.10;99.90;;;;;;5077448;28;20641;-53
2021/04/06 12:35:32;;;;;;;2.47;1.93;;;4.90;99.90;;;;;;5076222;28;20202;-60
2021/04/06 12:37:57;;;;;;;2.53;1.90;;;4.70;99.90;;;;;;5077226;28;20182;-57
2021/04/06 12:40:24;;;;;;;2.80;2.20;;;4.60;99.90;;;;;;5076183;28;20205;-60
2021/04/06 12:42:49;;;;;;;8.73;2.20;;;4.40;99.90;;;;;;5076761;28;20542;-52
2021/04/06 12:45:17;;;;;;;4.27;2.07;;;4.10;99.90;;;;;;5075947;28;20175;-51
2021/04/06 12:47:43;;;;;;;2.40;2.00;;;4.40;99.90;;;;;;5076654;28;20642;-47
2021/04/06 12:50:09;;;;;;;4.17;2.13;;;4.90;99.90;;;;;;5075523;28;20187;-47
2021/04/06 12:52:35;;;;;;;2.43;1.47;;;6.10;99.90;;;;;;5076561;28;20530;-57
2021/04/06 12:55:01;;;;;;;1.73;1.53;;;7.90;99.90;;;;;;5075932;28;20646;-55
2021/04/06 12:57:26;;;;;;;5.77;2.40;;;8.40;99.90;;;;;;5076210;28;20177;-49
2021/04/06 12:59:54;;;;;;;2.43;2.00;;;8.00;99.90;;;;;;5075617;28;20269;-56
2021/04/06 13:02:20;;;;;;;1.97;1.77;;;6.80;99.90;;;;;;5076305;28;20257;-59
2021/04/06 13:04:45;;;;;;;2.67;1.73;;;6.60;99.90;;;;;;5076469;28;20172;-50
2021/04/06 13:07:11;;;;;;;2.80;1.80;;;6.90;99.90;;;;;;5075530;28;20194;-50